sensor_id;sensor_type;location;lat;lon;timestamp;pressure;altitude;pressure_sealevel;temperature;humidity
36192;BME280;22233;42.708;23.360;2023-04-05T00:00:53;94944.13;;;0.69;78.75
36192;BME280;22233;42.708;23.360;2023-04-05T00:03:19;94939.25;;;0.56;78.23
36192;BME280;22233;42.708;23.360;2023-04-05T00:05:45;94928.88;;;0.65;78.57
36192;BME280;22233;42.708;23.360;2023-04-05T00:08:14;94935.31;;;0.84;78.57
36192;BME280;22233;42.708;23.360;2023-04-05T00:10:48;94920.66;;;0.87;77.90
36192;BME280;22233;42.708;23.360;2023-04-05T00:13:14;94915.56;;;1.00;76.99
36192;BME280;22233;42.708;23.360;2023-04-05T00:15:39;94938.31;;;0.93;77.33
36192;BME280;22233;42.708;23.360;2023-04-05T00:18:05;94925.69;;;0.78;77.06
36192;BME280;22233;42.708;23.360;2023-04-05T00:20:31;94925.19;;;0.91;77.40
36192;BME280;22233;42.708;23.360;2023-04-05T00:22:58;94914.91;;;0.52;78.90
36192;BME280;22233;42.708;23.360;2023-04-05T00:25:23;94934.44;;;0.58;78.74
36192;BME280;22233;42.708;23.360;2023-04-05T00:27:49;94942.44;;;0.53;78.56
36192;BME280;22233;42.708;23.360;2023-04-05T00:30:14;94925.66;;;0.68;78.27
36192;BME280;22233;42.708;23.360;2023-04-05T00:32:49;94932.34;;;0.70;78.70
36192;BME280;22233;42.708;23.360;2023-04-05T00:35:15;94917.38;;;0.69;77.39
36192;BME280;22233;42.708;23.360;2023-04-05T00:37:40;94927.59;;;0.83;76.61
36192;BME280;22233;42.708;23.360;2023-04-05T00:40:08;94945.19;;;0.73;77.75
36192;BME280;22233;42.708;23.360;2023-04-05T00:42:34;94955.94;;;0.94;77.46
36192;BME280;22233;42.708;23.360;2023-04-05T00:45:00;94925.16;;;0.71;77.08
36192;BME280;22233;42.708;23.360;2023-04-05T00:47:25;94928.06;;;0.74;77.58
36192;BME280;22233;42.708;23.360;2023-04-05T00:49:52;94920.91;;;1.00;76.54
36192;BME280;22233;42.708;23.360;2023-04-05T00:52:17;94936.69;;;0.87;76.97
36192;BME280;22233;42.708;23.360;2023-04-05T00:54:48;94943.91;;;0.91;76.73
36192;BME280;22233;42.708;23.360;2023-04-05T00:57:13;94939.84;;;0.73;77.13
36192;BME280;22233;42.708;23.360;2023-04-05T00:59:40;94917.41;;;0.79;76.83
36192;BME280;22233;42.708;23.360;2023-04-05T01:02:17;94948.88;;;0.57;79.06
36192;BME280;22233;42.708;23.360;2023-04-05T01:04:49;94952.66;;;0.71;78.21
36192;BME280;22233;42.708;23.360;2023-04-05T01:07:51;94943.34;;;0.79;77.55
36192;BME280;22233;42.708;23.360;2023-04-05T01:10:21;94929.63;;;0.60;77.34
36192;BME280;22233;42.708;23.360;2023-04-05T01:12:46;94945.44;;;0.67;77.51
36192;BME280;22233;42.708;23.360;2023-04-05T01:15:12;94954.09;;;0.99;77.41
36192;BME280;22233;42.708;23.360;2023-04-05T01:17:38;94945.75;;;0.81;76.90
36192;BME280;22233;42.708;23.360;2023-04-05T01:20:06;94937.72;;;0.75;76.59
36192;BME280;22233;42.708;23.360;2023-04-05T01:31:49;94945.78;;;0.96;75.71
36192;BME280;22233;42.708;23.360;2023-04-05T01:34:25;94961.03;;;0.95;75.43
36192;BME280;22233;42.708;23.360;2023-04-05T01:36:56;94947.34;;;0.82;76.37
36192;BME280;22233;42.708;23.360;2023-04-05T01:39:26;94942.31;;;0.95;76.32
36192;BME280;22233;42.708;23.360;2023-04-05T01:41:57;94951.13;;;0.81;77.25
36192;BME280;22233;42.708;23.360;2023-04-05T01:44:23;94957.00;;;0.83;76.15
36192;BME280;22233;42.708;23.360;2023-04-05T01:46:48;94946.75;;;0.64;76.42
36192;BME280;22233;42.708;23.360;2023-04-05T01:49:14;94966.66;;;0.94;75.90
36192;BME280;22233;42.708;23.360;2023-04-05T01:51:39;94944.63;;;0.66;77.30
36192;BME280;22233;42.708;23.360;2023-04-05T01:54:06;94963.66;;;0.75;77.19
36192;BME280;22233;42.708;23.360;2023-04-05T01:56:32;94947.03;;;0.68;76.29
36192;BME280;22233;42.708;23.360;2023-04-05T01:58:57;94951.56;;;0.62;76.88
36192;BME280;22233;42.708;23.360;2023-04-05T02:01:23;94932.50;;;0.43;77.66
36192;BME280;22233;42.708;23.360;2023-04-05T02:03:49;94957.97;;;0.66;76.76
36192;BME280;22233;42.708;23.360;2023-04-05T02:06:14;94943.81;;;0.61;77.31
36192;BME280;22233;42.708;23.360;2023-04-05T02:08:40;94948.41;;;0.75;77.09
36192;BME280;22233;42.708;23.360;2023-04-05T02:11:06;94943.88;;;0.81;76.58
36192;BME280;22233;42.708;23.360;2023-04-05T02:13:31;94937.75;;;0.86;75.50
36192;BME280;22233;42.708;23.360;2023-04-05T02:15:56;94950.94;;;1.28;74.33
36192;BME280;22233;42.708;23.360;2023-04-05T02:18:22;94962.94;;;1.05;74.80
36192;BME280;22233;42.708;23.360;2023-04-05T02:21:08;94945.84;;;1.11;74.69
36192;BME280;22233;42.708;23.360;2023-04-05T02:23:37;94963.47;;;0.97;74.65
36192;BME280;22233;42.708;23.360;2023-04-05T02:26:02;94955.44;;;0.97;74.33
36192;BME280;22233;42.708;23.360;2023-04-05T02:28:28;94963.38;;;0.71;76.01
36192;BME280;22233;42.708;23.360;2023-04-05T02:30:53;94954.03;;;0.79;76.24
36192;BME280;22233;42.708;23.360;2023-04-05T02:33:19;94959.69;;;0.83;75.45
36192;BME280;22233;42.708;23.360;2023-04-05T02:35:47;94942.03;;;0.87;75.35
36192;BME280;22233;42.708;23.360;2023-04-05T02:38:13;94964.41;;;0.70;76.75
36192;BME280;22233;42.708;23.360;2023-04-05T02:40:38;94949.97;;;0.66;77.02
36192;BME280;22233;42.708;23.360;2023-04-05T02:43:06;94956.72;;;0.79;76.52
36192;BME280;22233;42.708;23.360;2023-04-05T02:45:31;94946.91;;;1.10;74.78
36192;BME280;22233;42.708;23.360;2023-04-05T02:47:57;94952.00;;;1.17;75.75
36192;BME280;22233;42.708;23.360;2023-04-05T02:50:22;94945.59;;;1.13;76.13
36192;BME280;22233;42.708;23.360;2023-04-05T02:52:50;94949.25;;;0.81;76.03
36192;BME280;22233;42.708;23.360;2023-04-05T02:55:16;94954.31;;;0.83;76.11
36192;BME280;22233;42.708;23.360;2023-04-05T02:57:42;94959.19;;;1.01;75.52
36192;BME280;22233;42.708;23.360;2023-04-05T03:00:08;94940.59;;;0.58;76.73
36192;BME280;22233;42.708;23.360;2023-04-05T03:02:35;94951.38;;;0.84;76.64
36192;BME280;22233;42.708;23.360;2023-04-05T03:05:02;94960.22;;;0.90;76.68
36192;BME280;22233;42.708;23.360;2023-04-05T03:07:28;94949.81;;;0.93;75.95
36192;BME280;22233;42.708;23.360;2023-04-05T03:09:53;94938.50;;;0.76;76.32
36192;BME280;22233;42.708;23.360;2023-04-05T03:12:19;94951.63;;;0.77;76.79
36192;BME280;22233;42.708;23.360;2023-04-05T03:14:44;94948.16;;;0.82;76.58
36192;BME280;22233;42.708;23.360;2023-04-05T03:17:11;94934.47;;;0.68;76.74
36192;BME280;22233;42.708;23.360;2023-04-05T03:19:37;94953.72;;;0.65;75.89
36192;BME280;22233;42.708;23.360;2023-04-05T03:22:03;94936.88;;;0.65;76.99
36192;BME280;22233;42.708;23.360;2023-04-05T03:24:28;94946.75;;;0.59;77.19
36192;BME280;22233;42.708;23.360;2023-04-05T03:26:54;94955.66;;;0.90;75.66
36192;BME280;22233;42.708;23.360;2023-04-05T03:29:19;94966.84;;;0.72;75.61
36192;BME280;22233;42.708;23.360;2023-04-05T03:31:45;94969.34;;;0.99;76.09
36192;BME280;22233;42.708;23.360;2023-04-05T03:34:10;94950.53;;;0.73;75.94
36192;BME280;22233;42.708;23.360;2023-04-05T03:36:35;94951.34;;;0.74;76.70
36192;BME280;22233;42.708;23.360;2023-04-05T03:39:11;94947.94;;;0.89;75.68
36192;BME280;22233;42.708;23.360;2023-04-05T03:41:38;94949.56;;;1.10;74.85
36192;BME280;22233;42.708;23.360;2023-04-05T03:44:04;94960.56;;;1.24;75.06
36192;BME280;22233;42.708;23.360;2023-04-05T03:46:30;94964.59;;;1.32;75.06
36192;BME280;22233;42.708;23.360;2023-04-05T03:48:56;94957.91;;;1.29;74.31
36192;BME280;22233;42.708;23.360;2023-04-05T03:51:21;94961.38;;;1.25;75.71
36192;BME280;22233;42.708;23.360;2023-04-05T03:53:46;94946.13;;;1.30;74.34
36192;BME280;22233;42.708;23.360;2023-04-05T03:56:12;94962.19;;;1.35;74.45
36192;BME280;22233;42.708;23.360;2023-04-05T03:58:37;94972.13;;;1.50;74.74
36192;BME280;22233;42.708;23.360;2023-04-05T04:01:03;94966.19;;;1.23;75.44
36192;BME280;22233;42.708;23.360;2023-04-05T04:03:28;94977.72;;;1.33;74.79
36192;BME280;22233;42.708;23.360;2023-04-05T04:05:55;94972.56;;;1.01;76.58
36192;BME280;22233;42.708;23.360;2023-04-05T04:08:21;94981.72;;;1.36;75.73
36192;BME280;22233;42.708;23.360;2023-04-05T04:10:47;94982.22;;;1.23;77.20
36192;BME280;22233;42.708;23.360;2023-04-05T04:13:12;94974.78;;;1.35;75.67
36192;BME280;22233;42.708;23.360;2023-04-05T04:15:38;94976.88;;;1.17;75.81
36192;BME280;22233;42.708;23.360;2023-04-05T04:18:03;94985.44;;;1.25;75.34
36192;BME280;22233;42.708;23.360;2023-04-05T04:20:29;94975.75;;;0.98;77.75
36192;BME280;22233;42.708;23.360;2023-04-05T04:22:57;94982.78;;;1.25;75.31
36192;BME280;22233;42.708;23.360;2023-04-05T04:25:23;94983.28;;;1.11;76.39
36192;BME280;22233;42.708;23.360;2023-04-05T04:27:51;94985.50;;;1.40;75.01
36192;BME280;22233;42.708;23.360;2023-04-05T04:30:17;94981.66;;;1.00;77.09
36192;BME280;22233;42.708;23.360;2023-04-05T04:32:47;94980.06;;;1.09;75.94
36192;BME280;22233;42.708;23.360;2023-04-05T04:35:17;94975.50;;;0.99;75.27
36192;BME280;22233;42.708;23.360;2023-04-05T04:37:57;94995.38;;;1.29;76.07
36192;BME280;22233;42.708;23.360;2023-04-05T04:40:27;94993.47;;;1.25;74.50
36192;BME280;22233;42.708;23.360;2023-04-05T04:42:54;94975.81;;;1.18;75.51
36192;BME280;22233;42.708;23.360;2023-04-05T04:45:23;94983.84;;;1.29;75.74
36192;BME280;22233;42.708;23.360;2023-04-05T04:47:49;94997.50;;;1.32;75.60
36192;BME280;22233;42.708;23.360;2023-04-05T04:50:17;94991.03;;;1.08;75.99
36192;BME280;22233;42.708;23.360;2023-04-05T04:52:44;94989.13;;;0.98;75.23
36192;BME280;22233;42.708;23.360;2023-04-05T04:55:10;94991.09;;;1.23;76.37
36192;BME280;22233;42.708;23.360;2023-04-05T04:57:41;94982.75;;;1.14;75.52
36192;BME280;22233;42.708;23.360;2023-04-05T05:00:10;94982.25;;;1.17;75.53
36192;BME280;22233;42.708;23.360;2023-04-05T05:02:42;94988.66;;;1.22;75.55
36192;BME280;22233;42.708;23.360;2023-04-05T05:05:08;95005.13;;;0.88;75.71
36192;BME280;22233;42.708;23.360;2023-04-05T05:07:35;94982.44;;;0.95;75.04
36192;BME280;22233;42.708;23.360;2023-04-05T05:10:01;95006.84;;;1.19;74.85
36192;BME280;22233;42.708;23.360;2023-04-05T05:12:26;94997.75;;;1.20;74.31
36192;BME280;22233;42.708;23.360;2023-04-05T05:14:52;94987.84;;;1.16;76.88
36192;BME280;22233;42.708;23.360;2023-04-05T05:17:17;95000.13;;;1.12;75.91
36192;BME280;22233;42.708;23.360;2023-04-05T05:19:44;94976.94;;;1.33;74.97
36192;BME280;22233;42.708;23.360;2023-04-05T05:22:10;95002.84;;;1.17;75.17
36192;BME280;22233;42.708;23.360;2023-04-05T05:24:35;95007.59;;;1.05;76.60
36192;BME280;22233;42.708;23.360;2023-04-05T05:27:01;95003.84;;;0.95;74.87
36192;BME280;22233;42.708;23.360;2023-04-05T05:29:27;95007.09;;;1.08;76.41
36192;BME280;22233;42.708;23.360;2023-04-05T05:31:53;95007.16;;;1.38;74.68
36192;BME280;22233;42.708;23.360;2023-04-05T05:34:19;95015.50;;;1.47;74.25
36192;BME280;22233;42.708;23.360;2023-04-05T05:36:44;94991.84;;;1.13;75.69
36192;BME280;22233;42.708;23.360;2023-04-05T05:39:10;95003.94;;;1.31;74.49
36192;BME280;22233;42.708;23.360;2023-04-05T05:41:36;95010.91;;;1.43;73.47
36192;BME280;22233;42.708;23.360;2023-04-05T05:44:01;95014.41;;;1.48;72.74
36192;BME280;22233;42.708;23.360;2023-04-05T05:46:27;94995.28;;;0.98;74.95
36192;BME280;22233;42.708;23.360;2023-04-05T05:48:52;95012.22;;;1.19;73.83
36192;BME280;22233;42.708;23.360;2023-04-05T05:51:18;95007.97;;;1.39;73.87
36192;BME280;22233;42.708;23.360;2023-04-05T05:53:43;95001.56;;;1.45;73.68
36192;BME280;22233;42.708;23.360;2023-04-05T05:56:09;94997.81;;;1.46;73.68
36192;BME280;22233;42.708;23.360;2023-04-05T05:58:36;94992.44;;;1.46;73.34
36192;BME280;22233;42.708;23.360;2023-04-05T06:01:02;95006.34;;;1.38;73.00
36192;BME280;22233;42.708;23.360;2023-04-05T06:03:28;94999.88;;;1.18;74.35
36192;BME280;22233;42.708;23.360;2023-04-05T06:05:55;94994.84;;;1.27;72.37
36192;BME280;22233;42.708;23.360;2023-04-05T06:08:25;95006.34;;;1.38;72.45
36192;BME280;22233;42.708;23.360;2023-04-05T06:10:54;95010.13;;;1.52;72.58
36192;BME280;22233;42.708;23.360;2023-04-05T06:13:19;95012.53;;;1.44;71.93
36192;BME280;22233;42.708;23.360;2023-04-05T06:15:46;95014.94;;;1.45;72.11
36192;BME280;22233;42.708;23.360;2023-04-05T06:18:12;95006.94;;;1.60;71.97
36192;BME280;22233;42.708;23.360;2023-04-05T06:20:37;95028.34;;;1.60;71.87
36192;BME280;22233;42.708;23.360;2023-04-05T06:23:05;95007.75;;;1.76;71.67
36192;BME280;22233;42.708;23.360;2023-04-05T06:25:31;95014.19;;;1.75;70.23
36192;BME280;22233;42.708;23.360;2023-04-05T06:27:56;95022.75;;;1.72;69.86
36192;BME280;22233;42.708;23.360;2023-04-05T06:30:22;95028.63;;;1.95;70.38
36192;BME280;22233;42.708;23.360;2023-04-05T06:32:47;95025.16;;;1.94;70.69
36192;BME280;22233;42.708;23.360;2023-04-05T06:35:21;95018.75;;;1.85;69.81
36192;BME280;22233;42.708;23.360;2023-04-05T06:37:46;95030.00;;;1.97;69.13
36192;BME280;22233;42.708;23.360;2023-04-05T06:40:13;95020.09;;;2.13;69.28
36192;BME280;22233;42.708;23.360;2023-04-05T06:42:38;95015.50;;;2.29;69.06
36192;BME280;22233;42.708;23.360;2023-04-05T06:45:04;95036.94;;;2.19;69.19
36192;BME280;22233;42.708;23.360;2023-04-05T06:47:34;95029.72;;;1.99;68.26
36192;BME280;22233;42.708;23.360;2023-04-05T06:49:59;95029.19;;;1.92;69.26
36192;BME280;22233;42.708;23.360;2023-04-05T06:52:26;95039.63;;;2.19;68.73
36192;BME280;22233;42.708;23.360;2023-04-05T06:54:52;95030.00;;;1.92;69.55
36192;BME280;22233;42.708;23.360;2023-04-05T06:57:17;95047.13;;;2.32;68.09
36192;BME280;22233;42.708;23.360;2023-04-05T06:59:42;95055.69;;;2.29;68.25
36192;BME280;22233;42.708;23.360;2023-04-05T07:02:08;95068.59;;;2.37;67.96
36192;BME280;22233;42.708;23.360;2023-04-05T07:04:33;95056.25;;;2.36;67.66
36192;BME280;22233;42.708;23.360;2023-04-05T07:07:02;95069.34;;;2.58;67.57
36192;BME280;22233;42.708;23.360;2023-04-05T07:09:27;95060.00;;;2.46;68.11
36192;BME280;22233;42.708;23.360;2023-04-05T07:11:55;95052.22;;;2.39;66.96
36192;BME280;22233;42.708;23.360;2023-04-05T07:14:21;95076.63;;;2.32;67.55
36192;BME280;22233;42.708;23.360;2023-04-05T07:16:47;95072.31;;;2.11;68.46
36192;BME280;22233;42.708;23.360;2023-04-05T07:19:13;95070.72;;;1.99;68.70
36192;BME280;22233;42.708;23.360;2023-04-05T07:21:38;95074.75;;;2.17;68.91
36192;BME280;22233;42.708;23.360;2023-04-05T07:24:04;95069.13;;;2.24;68.15
36192;BME280;22233;42.708;23.360;2023-04-05T07:26:30;95078.75;;;2.35;67.65
36192;BME280;22233;42.708;23.360;2023-04-05T07:29:00;95069.63;;;2.62;67.38
36192;BME280;22233;42.708;23.360;2023-04-05T07:31:26;95072.88;;;2.44;67.75
36192;BME280;22233;42.708;23.360;2023-04-05T07:33:51;95063.47;;;2.31;67.35
36192;BME280;22233;42.708;23.360;2023-04-05T07:36:17;95074.75;;;2.23;68.14
36192;BME280;22233;42.708;23.360;2023-04-05T07:38:42;95080.63;;;2.45;67.74
36192;BME280;22233;42.708;23.360;2023-04-05T07:41:09;95083.84;;;2.47;67.03
36192;BME280;22233;42.708;23.360;2023-04-05T07:43:35;95083.31;;;2.30;67.54
36192;BME280;22233;42.708;23.360;2023-04-05T07:46:04;95085.19;;;2.19;68.14
36192;BME280;22233;42.708;23.360;2023-04-05T07:48:30;95095.63;;;2.20;67.98
36192;BME280;22233;42.708;23.360;2023-04-05T07:50:56;95103.41;;;2.22;68.03
36192;BME280;22233;42.708;23.360;2023-04-05T07:53:21;95094.56;;;2.47;67.41
36192;BME280;22233;42.708;23.360;2023-04-05T07:55:49;95086.53;;;2.42;66.24
36192;BME280;22233;42.708;23.360;2023-04-05T07:58:14;95105.03;;;2.44;66.42
36192;BME280;22233;42.708;23.360;2023-04-05T08:00:40;95119.50;;;2.32;65.87
36192;BME280;22233;42.708;23.360;2023-04-05T08:03:05;95121.91;;;2.29;66.22
36192;BME280;22233;42.708;23.360;2023-04-05T08:05:31;95115.22;;;2.36;66.06
36192;BME280;22233;42.708;23.360;2023-04-05T08:07:57;95117.09;;;2.31;65.53
36192;BME280;22233;42.708;23.360;2023-04-05T08:10:23;95115.72;;;2.23;66.46
36192;BME280;22233;42.708;23.360;2023-04-05T08:12:48;95120.00;;;1.98;66.34
36192;BME280;22233;42.708;23.360;2023-04-05T08:15:14;95116.28;;;1.99;67.10
36192;BME280;22233;42.708;23.360;2023-04-05T08:17:40;95122.94;;;2.07;67.13
36192;BME280;22233;42.708;23.360;2023-04-05T08:20:06;95098.25;;;1.59;66.79
36192;BME280;22233;42.708;23.360;2023-04-05T08:22:31;95109.03;;;2.05;67.10
36192;BME280;22233;42.708;23.360;2023-04-05T08:24:57;95124.84;;;2.02;67.26
36192;BME280;22233;42.708;23.360;2023-04-05T08:27:22;95142.50;;;2.03;67.82
36192;BME280;22233;42.708;23.360;2023-04-05T08:29:47;95131.81;;;1.97;67.32
36192;BME280;22233;42.708;23.360;2023-04-05T08:32:13;95127.28;;;2.13;66.64
36192;BME280;22233;42.708;23.360;2023-04-05T08:34:38;95118.41;;;2.23;67.07
36192;BME280;22233;42.708;23.360;2023-04-05T08:37:04;95120.84;;;2.14;67.17
36192;BME280;22233;42.708;23.360;2023-04-05T08:39:29;95135.31;;;2.18;67.12
36192;BME280;22233;42.708;23.360;2023-04-05T08:42:10;95119.50;;;2.02;67.22
36192;BME280;22233;42.708;23.360;2023-04-05T08:44:40;95144.19;;;2.39;66.20
36192;BME280;22233;42.708;23.360;2023-04-05T08:47:07;95132.13;;;2.42;66.40
36192;BME280;22233;42.708;23.360;2023-04-05T08:49:34;95146.25;;;1.96;66.43
36192;BME280;22233;42.708;23.360;2023-04-05T08:52:01;95146.28;;;2.17;66.59
36192;BME280;22233;42.708;23.360;2023-04-05T08:54:27;95145.22;;;2.13;67.08
36192;BME280;22233;42.708;23.360;2023-04-05T08:56:52;95132.84;;;1.96;67.31
36192;BME280;22233;42.708;23.360;2023-04-05T08:59:18;95147.34;;;1.95;67.59
36192;BME280;22233;42.708;23.360;2023-04-05T09:01:45;95158.09;;;2.16;68.59
36192;BME280;22233;42.708;23.360;2023-04-05T09:04:17;95155.59;;;1.84;69.62
36192;BME280;22233;42.708;23.360;2023-04-05T09:06:44;95166.09;;;2.00;70.52
36192;BME280;22233;42.708;23.360;2023-04-05T09:09:10;95144.16;;;2.29;67.91
36192;BME280;22233;42.708;23.360;2023-04-05T09:11:37;95156.47;;;2.25;68.12
36192;BME280;22233;42.708;23.360;2023-04-05T09:14:04;95152.19;;;2.19;69.29
36192;BME280;22233;42.708;23.360;2023-04-05T09:16:32;95153.03;;;2.40;68.11
36192;BME280;22233;42.708;23.360;2023-04-05T09:19:00;95158.34;;;2.14;68.54
36192;BME280;22233;42.708;23.360;2023-04-05T09:21:27;95146.53;;;2.05;68.82
36192;BME280;22233;42.708;23.360;2023-04-05T09:23:53;95156.78;;;2.34;69.21
36192;BME280;22233;42.708;23.360;2023-04-05T09:26:21;95159.06;;;3.38;65.60
36192;BME280;22233;42.708;23.360;2023-04-05T09:28:47;95150.25;;;3.17;65.27
36192;BME280;22233;42.708;23.360;2023-04-05T09:31:32;95158.88;;;2.93;66.38
36192;BME280;22233;42.708;23.360;2023-04-05T09:34:02;95156.22;;;2.37;65.73
36192;BME280;22233;42.708;23.360;2023-04-05T09:36:27;95155.44;;;2.52;65.82
36192;BME280;22233;42.708;23.360;2023-04-05T09:39:03;95140.16;;;2.22;67.88
36192;BME280;22233;42.708;23.360;2023-04-05T09:41:29;95128.63;;;2.62;65.52
36192;BME280;22233;42.708;23.360;2023-04-05T09:43:55;95164.00;;;2.74;64.64
36192;BME280;22233;42.708;23.360;2023-04-05T09:46:46;95151.69;;;2.58;66.01
36192;BME280;22233;42.708;23.360;2023-04-05T09:49:12;95144.44;;;2.58;65.34
36192;BME280;22233;42.708;23.360;2023-04-05T09:51:38;95146.03;;;2.49;66.00
36192;BME280;22233;42.708;23.360;2023-04-05T09:54:07;95140.94;;;2.73;65.22
36192;BME280;22233;42.708;23.360;2023-04-05T09:56:38;95143.38;;;2.44;66.39
36192;BME280;22233;42.708;23.360;2023-04-05T09:59:08;95139.06;;;2.43;66.39
36192;BME280;22233;42.708;23.360;2023-04-05T10:01:37;95140.16;;;2.63;65.54
36192;BME280;22233;42.708;23.360;2023-04-05T10:04:03;95161.03;;;2.91;63.23
36192;BME280;22233;42.708;23.360;2023-04-05T10:06:37;95139.06;;;2.79;64.19
36192;BME280;22233;42.708;23.360;2023-04-05T10:09:03;95148.97;;;2.89;62.41
36192;BME280;22233;42.708;23.360;2023-04-05T10:11:29;95150.03;;;2.77;61.75
36192;BME280;22233;42.708;23.360;2023-04-05T10:13:56;95157.03;;;2.94;62.69
36192;BME280;22233;42.708;23.360;2023-04-05T10:16:25;95147.63;;;2.55;63.26
36192;BME280;22233;42.708;23.360;2023-04-05T10:18:52;95154.88;;;2.91;62.59
36192;BME280;22233;42.708;23.360;2023-04-05T10:21:21;95159.16;;;3.02;62.12
36192;BME280;22233;42.708;23.360;2023-04-05T10:23:54;95159.41;;;3.11;61.38
36192;BME280;22233;42.708;23.360;2023-04-05T10:26:47;95163.34;;;3.39;61.26
36192;BME280;22233;42.708;23.360;2023-04-05T10:29:21;95148.91;;;3.19;61.05
36192;BME280;22233;42.708;23.360;2023-04-05T10:31:54;95154.69;;;3.63;60.29
36192;BME280;22233;42.708;23.360;2023-04-05T10:34:44;95151.53;;;3.45;59.47
36192;BME280;22233;42.708;23.360;2023-04-05T10:40:02;95133.00;;;3.49;59.22
36192;BME280;22233;42.708;23.360;2023-04-05T10:42:39;95137.44;;;3.74;58.58
36192;BME280;22233;42.708;23.360;2023-04-05T10:45:06;95158.22;;;3.48;59.38
36192;BME280;22233;42.708;23.360;2023-04-05T10:47:48;95161.19;;;3.36;58.81
36192;BME280;22233;42.708;23.360;2023-04-05T10:50:21;95145.66;;;3.28;59.62
36192;BME280;22233;42.708;23.360;2023-04-05T10:52:47;95155.31;;;3.44;59.29
36192;BME280;22233;42.708;23.360;2023-04-05T10:55:15;95151.00;;;3.48;58.57
36192;BME280;22233;42.708;23.360;2023-04-05T10:57:41;95157.16;;;3.49;58.91
36192;BME280;22233;42.708;23.360;2023-04-05T11:00:09;95140.16;;;3.69;59.21
36192;BME280;22233;42.708;23.360;2023-04-05T11:02:36;95158.66;;;3.75;57.69
36192;BME280;22233;42.708;23.360;2023-04-05T11:05:03;95161.66;;;3.69;57.11
36192;BME280;22233;42.708;23.360;2023-04-05T11:07:41;95159.38;;;3.96;56.90
36192;BME280;22233;42.708;23.360;2023-04-05T11:10:16;95160.31;;;4.16;56.64
36192;BME280;22233;42.708;23.360;2023-04-05T11:18:09;95170.47;;;4.24;57.24
36192;BME280;22233;42.708;23.360;2023-04-05T11:23:08;95152.13;;;5.05;55.32
36192;BME280;22233;42.708;23.360;2023-04-05T11:25:37;95153.63;;;4.87;55.05
36192;BME280;22233;42.708;23.360;2023-04-05T11:28:04;95165.53;;;4.76;55.27
36192;BME280;22233;42.708;23.360;2023-04-05T11:30:56;95147.84;;;4.30;56.74
36192;BME280;22233;42.708;23.360;2023-04-05T11:36:08;95172.38;;;3.69;56.88
36192;BME280;22233;42.708;23.360;2023-04-05T11:38:35;95185.09;;;4.08;56.16
36192;BME280;22233;42.708;23.360;2023-04-05T11:41:17;95163.91;;;4.40;56.62
36192;BME280;22233;42.708;23.360;2023-04-05T11:43:49;95173.81;;;4.11;55.69
36192;BME280;22233;42.708;23.360;2023-04-05T11:46:17;95174.59;;;4.11;56.07
36192;BME280;22233;42.708;23.360;2023-04-05T11:48:48;95158.94;;;4.18;56.54
36192;BME280;22233;42.708;23.360;2023-04-05T11:51:15;95143.91;;;4.23;56.79
36192;BME280;22233;42.708;23.360;2023-04-05T11:53:45;95159.16;;;4.67;56.68
36192;BME280;22233;42.708;23.360;2023-04-05T11:56:11;95145.81;;;5.15;55.30
36192;BME280;22233;42.708;23.360;2023-04-05T11:58:40;95135.28;;;5.43;53.26
36192;BME280;22233;42.708;23.360;2023-04-05T12:01:07;95156.19;;;5.51;53.46
36192;BME280;22233;42.708;23.360;2023-04-05T12:03:33;95146.19;;;5.56;53.87
36192;BME280;22233;42.708;23.360;2023-04-05T12:06:03;95144.84;;;5.06;55.78
36192;BME280;22233;42.708;23.360;2023-04-05T12:08:42;95175.63;;;4.94;56.52
36192;BME280;22233;42.708;23.360;2023-04-05T12:11:14;95178.47;;;4.39;58.13
36192;BME280;22233;42.708;23.360;2023-04-05T12:13:39;95163.66;;;4.42;57.71
36192;BME280;22233;42.708;23.360;2023-04-05T12:16:06;95178.38;;;4.50;57.88
36192;BME280;22233;42.708;23.360;2023-04-05T12:18:35;95153.13;;;4.46;58.85
36192;BME280;22233;42.708;23.360;2023-04-05T12:21:01;95183.75;;;4.55;58.17
36192;BME280;22233;42.708;23.360;2023-04-05T12:23:27;95185.94;;;4.48;58.86
36192;BME280;22233;42.708;23.360;2023-04-05T12:25:54;95171.38;;;4.54;57.94
36192;BME280;22233;42.708;23.360;2023-04-05T12:28:20;95180.66;;;4.32;57.52
36192;BME280;22233;42.708;23.360;2023-04-05T12:30:49;95166.06;;;4.44;57.70
36192;BME280;22233;42.708;23.360;2023-04-05T12:33:25;95165.59;;;4.31;58.46
36192;BME280;22233;42.708;23.360;2023-04-05T12:35:51;95155.16;;;3.75;59.76
36192;BME280;22233;42.708;23.360;2023-04-05T12:38:16;95172.91;;;3.71;60.19
36192;BME280;22233;42.708;23.360;2023-04-05T12:40:42;95186.03;;;3.77;59.92
36192;BME280;22233;42.708;23.360;2023-04-05T12:43:08;95165.59;;;3.87;59.95
36192;BME280;22233;42.708;23.360;2023-04-05T12:45:35;95161.31;;;3.80;59.64
36192;BME280;22233;42.708;23.360;2023-04-05T12:48:13;95160.78;;;4.28;59.10
36192;BME280;22233;42.708;23.360;2023-04-05T12:50:44;95164.28;;;4.29;59.84
36192;BME280;22233;42.708;23.360;2023-04-05T12:53:18;95154.91;;;3.76;60.23
36192;BME280;22233;42.708;23.360;2023-04-05T12:55:49;95163.91;;;3.26;61.17
36192;BME280;22233;42.708;23.360;2023-04-05T12:58:15;95161.44;;;3.50;59.83
36192;BME280;22233;42.708;23.360;2023-04-05T13:00:42;95153.72;;;3.33;59.17
36192;BME280;22233;42.708;23.360;2023-04-05T13:03:17;95155.53;;;3.53;59.74
36192;BME280;22233;42.708;23.360;2023-04-05T13:05:45;95169.13;;;3.72;58.64
36192;BME280;22233;42.708;23.360;2023-04-05T13:08:11;95164.03;;;3.80;57.53
36192;BME280;22233;42.708;23.360;2023-04-05T13:10:37;95160.84;;;3.68;58.64
36192;BME280;22233;42.708;23.360;2023-04-05T13:13:02;95168.34;;;3.66;58.31
36192;BME280;22233;42.708;23.360;2023-04-05T13:15:28;95169.72;;;3.69;58.27
36192;BME280;22233;42.708;23.360;2023-04-05T13:17:53;95167.97;;;3.88;57.64
36192;BME280;22233;42.708;23.360;2023-04-05T13:20:19;95170.16;;;3.86;58.05
36192;BME280;22233;42.708;23.360;2023-04-05T13:22:45;95163.13;;;3.95;58.05
36192;BME280;22233;42.708;23.360;2023-04-05T13:25:12;95156.75;;;3.76;58.56